createdAt,value
2022-11-03T00:01:37.895Z,13.80
2022-11-03T00:04:08.251Z,13.77
2022-11-03T00:06:38.086Z,11.43
2022-11-03T00:09:11.683Z,11.13
2022-11-03T00:11:42.770Z,12.00
2022-11-03T00:14:13.181Z,11.63
2022-11-03T00:16:42.886Z,12.52
2022-11-03T00:19:14.524Z,12.50
2022-11-03T00:21:44.129Z,12.82
2022-11-03T00:24:16.743Z,15.95
2022-11-03T00:26:46.315Z,13.23
2022-11-03T00:29:17.341Z,13.95
2022-11-03T00:31:47.758Z,13.32
2022-11-03T00:34:17.288Z,16.05
2022-11-03T00:36:47.473Z,13.13
2022-11-03T00:39:19.686Z,10.32
2022-11-03T00:41:49.306Z,10.40
2022-11-03T00:44:18.891Z,11.43
2022-11-03T00:46:48.611Z,14.60
2022-11-03T00:49:18.218Z,13.70
2022-11-03T00:51:47.802Z,12.97
2022-11-03T00:54:19.967Z,14.18
2022-11-03T00:56:49.524Z,11.45
2022-11-03T00:59:19.327Z,13.98
2022-11-03T01:01:49.022Z,17.55
2022-11-03T01:04:31.829Z,10.13
2022-11-03T01:07:03.476Z,11.10
2022-11-03T01:09:38.588Z,16.23
2022-11-03T01:12:10.345Z,11.50
2022-11-03T01:14:42.008Z,16.00
2022-11-03T01:17:13.326Z,14.70
2022-11-03T01:19:42.907Z,11.80
2022-11-03T01:22:12.886Z,12.63
2022-11-03T01:24:45.734Z,15.43
2022-11-03T01:27:17.498Z,18.13
2022-11-03T01:29:47.395Z,14.73
2022-11-03T01:32:17.090Z,16.27
2022-11-03T01:34:46.642Z,11.30
2022-11-03T01:37:16.149Z,12.70
2022-11-03T01:39:48.287Z,15.10
2022-11-03T01:42:17.837Z,15.57
2022-11-03T01:44:49.732Z,14.05
2022-11-03T01:47:25.789Z,11.77
2022-11-03T01:49:58.371Z,15.77
2022-11-03T01:52:30.922Z,12.90
2022-11-03T01:55:05.751Z,11.60
2022-11-03T01:57:38.106Z,13.10
2022-11-03T02:00:09.604Z,14.18
2022-11-03T02:02:45.557Z,10.73
2022-11-03T02:05:16.068Z,11.35
2022-11-03T02:07:49.724Z,15.18
2022-11-03T02:10:22.026Z,15.50
2022-11-03T02:12:51.904Z,12.20
2022-11-03T02:15:23.394Z,14.30
2022-11-03T02:17:54.739Z,14.18
2022-11-03T02:20:27.028Z,14.40
2022-11-03T02:23:17.393Z,15.65
2022-11-03T02:25:50.507Z,18.92
2022-11-03T02:28:21.700Z,17.10
2022-11-03T02:30:56.867Z,15.05
2022-11-03T02:33:34.634Z,15.65
2022-11-03T02:36:09.490Z,13.60
2022-11-03T02:38:45.850Z,13.55
2022-11-03T02:41:19.140Z,17.70
2022-11-03T02:43:49.680Z,13.40
2022-11-03T02:46:20.168Z,14.85
2022-11-03T02:48:50.925Z,11.75
2022-11-03T02:51:20.585Z,12.75
2022-11-03T02:53:59.513Z,17.52
2022-11-03T02:56:33.405Z,11.98
2022-11-03T02:59:05.247Z,13.07
2022-11-03T03:01:37.387Z,17.20
2022-11-03T03:04:09.088Z,14.40
2022-11-03T03:06:41.595Z,12.68
2022-11-03T03:09:19.858Z,15.70
2022-11-03T03:11:54.044Z,15.88
2022-11-03T03:14:27.228Z,19.98
2022-11-03T03:17:01.757Z,14.10
2022-11-03T03:19:44.594Z,15.20
2022-11-03T03:22:19.205Z,10.77
2022-11-03T03:24:52.837Z,14.00
2022-11-03T03:27:30.974Z,13.07
2022-11-03T03:30:04.411Z,9.82
2022-11-03T03:32:38.615Z,14.90
2022-11-03T03:35:11.911Z,16.40
2022-11-03T03:37:43.987Z,10.48
2022-11-03T03:40:18.977Z,14.40
2022-11-03T03:42:51.949Z,12.73
2022-11-03T03:45:22.657Z,15.07
2022-11-03T03:47:57.345Z,15.13
2022-11-03T03:50:28.620Z,17.80
2022-11-03T03:52:59.609Z,16.35
2022-11-03T03:55:37.465Z,15.98
2022-11-03T03:58:10.309Z,10.73
2022-11-03T04:00:41.772Z,10.90
2022-11-03T04:03:16.862Z,15.20
2022-11-03T04:05:46.666Z,15.00
2022-11-03T04:08:16.781Z,17.17
2022-11-03T04:11:07.165Z,13.18
2022-11-03T04:13:51.774Z,9.40
2022-11-03T04:16:33.805Z,15.75
2022-11-03T04:19:15.997Z,19.27
2022-11-03T04:21:58.039Z,15.60
2022-11-03T04:24:27.581Z,9.98
2022-11-03T04:26:57.361Z,28.08
2022-11-03T04:29:30.074Z,15.77
2022-11-03T04:31:59.649Z,14.32
2022-11-03T04:34:29.295Z,14.33
2022-11-03T04:36:59.263Z,14.25
2022-11-03T04:39:28.839Z,14.93
2022-11-03T04:41:58.468Z,17.13
2022-11-03T04:44:31.082Z,15.40
2022-11-03T04:47:00.625Z,10.82
2022-11-03T04:49:30.249Z,15.35
2022-11-03T04:51:59.806Z,12.40
2022-11-03T04:54:29.702Z,14.57
2022-11-03T04:56:59.439Z,12.95
2022-11-03T04:59:31.696Z,9.05
2022-11-03T05:02:01.868Z,14.32
2022-11-03T05:04:31.676Z,16.03
2022-11-03T05:07:01.245Z,15.57
2022-11-03T05:09:32.973Z,12.93
2022-11-03T05:12:02.530Z,12.60
2022-11-03T05:14:35.223Z,15.02
2022-11-03T05:17:05.692Z,19.92
2022-11-03T05:19:37.178Z,18.38
2022-11-03T05:22:08.131Z,14.15
2022-11-03T05:24:38.617Z,14.25
2022-11-03T05:27:09.023Z,10.93
2022-11-03T05:29:41.417Z,13.57
2022-11-03T05:32:14.496Z,11.73
2022-11-03T05:34:46.242Z,16.20
2022-11-03T05:37:27.184Z,12.07
2022-11-03T05:39:59.469Z,11.45
2022-11-03T05:42:36.970Z,16.00
2022-11-03T05:45:18.382Z,10.65
2022-11-03T05:47:47.986Z,16.35
2022-11-03T05:50:21.710Z,12.82
2022-11-03T05:52:52.837Z,13.20
2022-11-03T05:55:28.502Z,10.68
2022-11-03T05:57:59.358Z,13.77
2022-11-03T06:00:35.534Z,11.90
2022-11-03T06:03:05.231Z,15.73
2022-11-03T06:05:35.942Z,13.27
2022-11-03T06:08:09.561Z,12.80
2022-11-03T06:10:43.347Z,17.40
2022-11-03T06:13:16.830Z,10.98
2022-11-03T06:15:50.789Z,11.27
2022-11-03T06:18:24.372Z,14.15
2022-11-03T06:20:55.585Z,13.63
2022-11-03T06:23:25.653Z,12.93
2022-11-03T06:25:56.971Z,11.85
2022-11-03T06:28:28.733Z,10.13
2022-11-03T06:31:00.868Z,20.30
2022-11-03T06:33:32.219Z,14.10
2022-11-03T06:36:03.669Z,16.13
2022-11-03T06:38:33.767Z,8.73
2022-11-03T06:41:03.492Z,12.80
2022-11-03T06:43:39.702Z,17.17
2022-11-03T06:46:15.978Z,10.82
2022-11-03T06:48:45.549Z,12.32
2022-11-03T06:51:18.586Z,11.30
2022-11-03T06:53:48.307Z,10.23
2022-11-03T06:56:19.735Z,11.35
2022-11-03T06:58:50.901Z,11.33
2022-11-03T07:01:25.664Z,11.27
2022-11-03T07:03:59.162Z,13.75
2022-11-03T07:06:31.809Z,10.18
2022-11-03T07:09:04.995Z,12.43
2022-11-03T07:11:37.926Z,14.30
2022-11-03T07:14:15.022Z,10.33
2022-11-03T07:16:49.014Z,12.05
2022-11-03T07:19:22.291Z,10.35
2022-11-03T07:21:53.373Z,18.35
2022-11-03T07:24:25.575Z,14.57
2022-11-03T07:26:57.708Z,11.80
2022-11-03T07:29:29.848Z,7.95
2022-11-03T07:32:02.948Z,9.65
2022-11-03T07:34:35.658Z,8.13
2022-11-03T07:37:05.377Z,14.63
2022-11-03T07:39:37.898Z,14.68
2022-11-03T07:42:15.977Z,14.70
2022-11-03T07:44:45.690Z,16.52
2022-11-03T07:47:21.812Z,15.02
2022-11-03T07:49:51.390Z,7.88
2022-11-03T07:52:24.591Z,9.70
2022-11-03T07:54:56.912Z,13.70
2022-11-03T07:57:30.454Z,12.00
2022-11-03T08:00:05.381Z,14.57
2022-11-03T08:02:51.825Z,16.67
2022-11-03T08:05:22.243Z,20.35
2022-11-03T08:07:51.934Z,12.38
2022-11-03T08:10:21.743Z,12.60
2022-11-03T08:12:51.357Z,13.90
2022-11-03T08:15:20.971Z,10.87
2022-11-03T08:17:56.157Z,13.93
2022-11-03T08:20:27.326Z,10.35
2022-11-03T08:23:24.068Z,11.70
2022-11-03T08:25:46.778Z,12.45
2022-11-03T08:28:16.331Z,10.90
2022-11-03T08:30:45.899Z,11.55
2022-11-03T08:33:18.270Z,15.60
2022-11-03T08:35:47.945Z,11.93
2022-11-03T08:38:17.533Z,11.38
2022-11-03T08:40:50.160Z,10.27
2022-11-03T08:43:23.803Z,13.90
2022-11-03T08:45:53.832Z,13.57
2022-11-03T08:48:27.282Z,10.70
2022-11-03T08:50:58.003Z,13.30
2022-11-03T08:53:29.133Z,9.43
2022-11-03T08:55:58.958Z,12.17
2022-11-03T08:58:28.659Z,11.60
2022-11-03T09:00:58.209Z,7.40
2022-11-03T09:03:30.440Z,13.40
2022-11-03T09:06:00.042Z,12.65
2022-11-03T09:11:19.322Z,12.03
2022-11-03T09:13:48.943Z,9.60
2022-11-03T09:16:18.766Z,13.70
2022-11-03T09:18:50.887Z,12.60
2022-11-03T09:21:20.425Z,14.68
2022-11-03T09:23:50.069Z,11.88
2022-11-03T09:26:20.165Z,9.87
2022-11-03T09:28:50.042Z,12.70
2022-11-03T09:31:19.910Z,12.10
2022-11-03T09:33:52.063Z,9.75
2022-11-03T09:36:21.635Z,11.40
2022-11-03T09:38:51.165Z,14.95
2022-11-03T09:41:26.945Z,7.50
2022-11-03T09:44:05.169Z,9.82
2022-11-03T09:46:35.228Z,11.20
2022-11-03T09:49:07.957Z,9.00
2022-11-03T09:51:38.699Z,6.47
2022-11-03T09:54:08.586Z,8.38
2022-11-03T09:56:39.610Z,8.68
2022-11-03T09:59:17.952Z,15.98
2022-11-03T10:01:49.973Z,12.38
2022-11-03T10:04:25.708Z,13.43
2022-11-03T10:06:55.362Z,10.07
2022-11-03T10:09:25.343Z,9.32
2022-11-03T10:11:56.089Z,12.32
2022-11-03T10:14:26.031Z,9.35
2022-11-03T10:17:00.324Z,7.00
2022-11-03T10:19:32.584Z,6.82
2022-11-03T10:22:02.101Z,10.48
2022-11-03T10:24:31.631Z,6.43
2022-11-03T10:27:01.555Z,7.03
2022-11-03T10:29:35.913Z,7.07
2022-11-03T10:32:33.505Z,9.17
2022-11-03T10:35:06.836Z,8.32
2022-11-03T10:37:39.883Z,9.45
2022-11-03T10:40:47.951Z,8.27
2022-11-03T10:43:18.176Z,7.90
2022-11-03T10:45:49.634Z,6.55
2022-11-03T10:48:19.228Z,7.10
2022-11-03T10:50:48.745Z,9.13
2022-11-03T10:53:20.829Z,11.82
2022-11-03T10:55:53.975Z,6.88
2022-11-03T10:58:23.519Z,9.65
2022-11-03T11:00:53.143Z,7.47
2022-11-03T11:03:22.754Z,7.57
2022-11-03T11:05:52.682Z,12.52
2022-11-03T11:08:25.009Z,8.38
2022-11-03T11:10:57.541Z,6.20
2022-11-03T11:13:31.273Z,6.55
2022-11-03T11:16:02.022Z,9.40
2022-11-03T11:19:14.262Z,7.70
2022-11-03T11:22:08.343Z,8.60
2022-11-03T11:25:00.251Z,4.78
2022-11-03T11:28:05.269Z,7.75
2022-11-03T11:31:01.387Z,8.00
2022-11-03T11:33:33.046Z,7.18
2022-11-03T11:36:09.023Z,7.13
2022-11-03T11:38:58.189Z,8.95
2022-11-03T11:41:57.863Z,9.68
2022-11-03T11:44:57.103Z,7.53
2022-11-03T11:47:32.221Z,7.10
2022-11-03T11:50:22.606Z,6.70
2022-11-03T11:52:56.237Z,8.50
2022-11-03T11:55:31.720Z,8.50
2022-11-03T11:58:02.624Z,7.10
2022-11-03T12:00:33.613Z,5.53
2022-11-03T12:03:08.026Z,8.25
2022-11-03T12:05:38.386Z,9.07
2022-11-03T12:08:21.255Z,7.25
2022-11-03T12:10:57.996Z,6.38
2022-11-03T12:13:51.619Z,8.45
2022-11-03T12:16:35.027Z,7.57
2022-11-03T12:19:34.668Z,8.88
2022-11-03T12:22:07.497Z,5.38
2022-11-03T12:24:49.305Z,7.05
2022-11-03T12:27:38.530Z,8.20
2022-11-03T12:30:11.542Z,5.80
2022-11-03T12:32:41.118Z,7.75
2022-11-03T12:35:13.585Z,6.80
2022-11-03T12:37:46.256Z,9.52
2022-11-03T12:40:16.600Z,7.30
2022-11-03T12:42:46.316Z,9.80
2022-11-03T12:45:16.289Z,5.70
2022-11-03T12:47:45.920Z,7.28
2022-11-03T12:50:15.603Z,8.10
2022-11-03T12:52:47.882Z,6.63
2022-11-03T12:55:17.659Z,5.63
2022-11-03T12:57:47.637Z,8.20
2022-11-03T13:00:18.538Z,6.28
2022-11-03T13:02:48.232Z,6.07
2022-11-03T13:05:18.011Z,7.43
2022-11-03T13:07:50.227Z,9.33
2022-11-03T13:10:19.778Z,7.33
2022-11-03T13:12:50.608Z,6.63
2022-11-03T13:15:20.494Z,7.45
2022-11-03T13:18:12.408Z,5.85
2022-11-03T13:20:40.090Z,10.77
2022-11-03T13:23:12.232Z,7.30
2022-11-03T13:25:41.968Z,9.60
2022-11-03T13:28:11.586Z,6.55
2022-11-03T13:30:41.460Z,7.00
2022-11-03T13:33:11.287Z,6.32
2022-11-03T13:35:41.094Z,7.00
2022-11-03T13:38:13.319Z,11.23
2022-11-03T13:40:56.250Z,10.85
2022-11-03T13:43:26.881Z,10.00
2022-11-03T13:45:58.585Z,10.68
2022-11-03T13:51:18.993Z,8.23
2022-11-03T13:59:30.488Z,6.22
2022-11-03T14:04:49.691Z,7.22
2022-11-03T14:07:19.309Z,6.82
2022-11-03T14:09:51.451Z,9.20
2022-11-03T14:12:34.578Z,6.75
2022-11-03T14:15:05.838Z,6.43
2022-11-03T14:17:36.053Z,6.70
2022-11-03T14:20:06.098Z,8.35
2022-11-03T14:22:35.798Z,11.10
2022-11-03T14:25:09.657Z,5.97
2022-11-03T14:27:39.377Z,8.30
2022-11-03T14:30:10.607Z,12.30
2022-11-03T14:32:40.232Z,7.03
2022-11-03T14:35:10.660Z,9.00
2022-11-03T14:37:40.391Z,4.37
2022-11-03T14:40:33.917Z,8.93
2022-11-03T14:43:01.062Z,5.60
2022-11-03T14:45:30.771Z,9.70
2022-11-03T14:48:00.404Z,8.75
2022-11-03T14:50:30.025Z,12.13
2022-11-03T14:53:00.072Z,8.23
2022-11-03T14:55:32.375Z,11.88
2022-11-03T14:58:02.020Z,6.13
2022-11-03T15:00:31.610Z,8.60
2022-11-03T15:03:01.305Z,14.70
2022-11-03T15:05:43.296Z,8.95
2022-11-03T15:08:12.955Z,9.93
2022-11-03T15:10:46.081Z,8.60
2022-11-03T15:13:15.800Z,9.23
2022-11-03T15:15:46.017Z,7.35
2022-11-03T15:18:15.872Z,8.85
2022-11-03T15:20:46.084Z,10.68
2022-11-03T15:26:08.661Z,6.70
2022-11-03T15:28:38.732Z,8.77
2022-11-03T15:31:08.842Z,8.07
2022-11-03T15:33:38.418Z,9.95
2022-11-03T15:36:08.608Z,10.65
2022-11-03T15:38:38.520Z,13.98
2022-11-03T15:41:19.800Z,8.30
2022-11-03T15:43:50.478Z,12.40
2022-11-03T15:46:20.785Z,9.55
2022-11-03T15:48:51.110Z,11.35
2022-11-03T15:51:20.733Z,7.95
2022-11-03T15:53:56.718Z,10.48
2022-11-03T15:56:30.655Z,8.63
2022-11-03T15:59:00.328Z,12.40
2022-11-03T16:01:30.043Z,11.13
2022-11-03T16:04:02.092Z,10.95
2022-11-03T16:07:06.681Z,9.52
2022-11-03T16:09:21.589Z,9.20
2022-11-03T16:11:53.758Z,10.45
2022-11-03T16:14:23.334Z,7.50
2022-11-03T16:16:52.891Z,7.43
2022-11-03T16:19:22.602Z,8.80
2022-11-03T16:21:52.166Z,10.90
2022-11-03T16:24:21.823Z,9.27
2022-11-03T16:26:53.950Z,14.45
2022-11-03T16:29:23.505Z,10.93
2022-11-03T16:31:53.503Z,14.75
2022-11-03T16:34:23.047Z,10.38
2022-11-03T16:36:52.691Z,10.50
2022-11-03T16:39:22.370Z,9.93
2022-11-03T16:41:56.359Z,8.65
2022-11-03T16:44:25.946Z,15.48
2022-11-03T16:46:55.568Z,8.90
2022-11-03T16:49:25.177Z,12.23
2022-11-03T16:51:54.814Z,10.00
2022-11-03T16:54:24.369Z,8.23
2022-11-03T16:56:56.548Z,12.43
2022-11-03T16:59:26.568Z,15.25
2022-11-03T17:01:56.897Z,8.93
2022-11-03T17:04:26.661Z,12.07
2022-11-03T17:06:56.330Z,8.85
2022-11-03T17:09:25.906Z,8.90
2022-11-03T17:11:58.499Z,8.98
2022-11-03T17:14:28.098Z,10.00
2022-11-03T17:17:00.266Z,8.50
2022-11-03T17:19:30.453Z,8.57
2022-11-03T17:22:00.090Z,8.97
2022-11-03T17:24:29.729Z,8.15
2022-11-03T17:27:04.172Z,10.23
2022-11-03T17:29:37.138Z,9.03
2022-11-03T17:32:09.998Z,9.93
2022-11-03T17:34:40.431Z,11.23
2022-11-03T17:37:10.537Z,9.00
2022-11-03T17:39:41.768Z,10.93
2022-11-03T17:42:21.477Z,12.65
2022-11-03T17:44:54.474Z,11.35
2022-11-03T17:47:25.810Z,9.97
2022-11-03T17:49:55.472Z,9.63
2022-11-03T17:52:28.614Z,9.27
2022-11-03T17:55:00.479Z,12.63
2022-11-03T17:57:32.858Z,9.25
2022-11-03T18:00:03.205Z,8.32
2022-11-03T18:02:41.185Z,11.93
2022-11-03T18:05:22.158Z,8.43
2022-11-03T18:07:52.992Z,10.68
2022-11-03T18:10:22.923Z,13.73
2022-11-03T18:13:07.721Z,10.75
2022-11-03T18:15:39.303Z,9.55
2022-11-03T18:18:16.360Z,9.60
2022-11-03T18:20:53.665Z,13.90
2022-11-03T18:23:25.346Z,11.43
2022-11-03T18:25:55.901Z,10.43
2022-11-03T18:28:28.428Z,11.35
2022-11-03T18:30:59.367Z,9.88
2022-11-03T18:33:30.434Z,9.75
2022-11-03T18:36:00.337Z,12.55
2022-11-03T18:38:30.927Z,9.65
2022-11-03T18:41:00.573Z,12.30
2022-11-03T18:43:33.716Z,12.10
2022-11-03T18:46:03.238Z,10.13
2022-11-03T18:48:33.046Z,9.98
2022-11-03T18:51:02.720Z,8.68
2022-11-03T18:53:34.068Z,13.15
2022-11-03T18:56:08.587Z,12.10
2022-11-03T18:58:40.950Z,10.00
2022-11-03T19:01:13.953Z,11.40
2022-11-03T19:03:43.561Z,8.43
2022-11-03T19:06:13.516Z,8.90
2022-11-03T19:08:44.153Z,10.95
2022-11-03T19:11:14.153Z,9.27
2022-11-03T19:13:47.611Z,11.82
2022-11-03T19:16:19.995Z,8.57
2022-11-03T19:18:49.829Z,7.57
2022-11-03T19:21:21.560Z,10.15
2022-11-03T19:23:55.473Z,11.05
2022-11-03T19:26:33.583Z,8.88
2022-11-03T19:29:08.567Z,13.05
2022-11-03T19:31:40.579Z,10.38
2022-11-03T19:34:11.380Z,8.80
2022-11-03T19:36:41.552Z,10.05
2022-11-03T19:39:16.196Z,8.90
2022-11-03T19:41:58.201Z,8.40
2022-11-03T19:44:30.432Z,10.80
2022-11-03T19:47:00.062Z,10.00
2022-11-03T19:49:29.898Z,10.93
2022-11-03T19:52:00.843Z,8.93
2022-11-03T19:54:30.435Z,14.25
2022-11-03T19:57:00.013Z,11.82
2022-11-03T19:59:32.240Z,13.50
2022-11-03T20:02:01.911Z,12.85
2022-11-03T20:04:31.614Z,9.70
2022-11-03T20:07:01.257Z,11.55
2022-11-03T20:09:31.253Z,12.57
2022-11-03T20:12:04.470Z,12.18
2022-11-03T20:14:37.099Z,12.10
2022-11-03T20:17:14.639Z,12.88
2022-11-03T20:19:44.196Z,12.13
2022-11-03T20:22:17.944Z,10.77
2022-11-03T20:24:48.010Z,10.60
2022-11-03T20:27:23.385Z,13.25
2022-11-03T20:29:56.060Z,11.98
2022-11-03T20:32:25.698Z,9.70
2022-11-03T20:34:55.278Z,11.07
2022-11-03T20:37:24.937Z,9.05
2022-11-03T20:39:54.569Z,11.33
2022-11-03T20:42:25.825Z,9.68
2022-11-03T20:44:58.576Z,12.65
2022-11-03T20:47:28.928Z,9.70
2022-11-03T20:49:58.585Z,8.57
2022-11-03T20:52:28.231Z,13.63
2022-11-03T20:54:57.808Z,12.53
2022-11-03T20:57:27.371Z,11.63
2022-11-03T20:59:59.538Z,9.65
2022-11-03T21:02:29.803Z,11.00
2022-11-03T21:05:00.106Z,9.85
2022-11-03T21:07:29.738Z,12.82
2022-11-03T21:09:59.370Z,9.45
2022-11-03T21:12:28.971Z,9.82
2022-11-03T21:15:13.560Z,9.55
2022-11-03T21:17:55.534Z,11.15
2022-11-03T21:20:26.297Z,10.20
2022-11-03T21:22:55.950Z,9.25
2022-11-03T21:25:26.157Z,8.10
2022-11-03T21:27:56.282Z,8.00
2022-11-03T21:30:28.486Z,8.82
2022-11-03T21:32:58.045Z,9.82
2022-11-03T21:35:27.791Z,7.70
2022-11-03T21:37:57.430Z,7.78
2022-11-03T21:40:27.039Z,8.60
2022-11-03T21:43:09.315Z,7.07
2022-11-03T21:45:41.436Z,11.43
2022-11-03T21:48:23.751Z,7.30
2022-11-03T21:50:53.688Z,8.50
2022-11-03T21:53:23.295Z,7.60
2022-11-03T21:55:53.578Z,7.60
2022-11-03T21:58:23.140Z,9.70
2022-11-03T22:00:55.341Z,7.40
2022-11-03T22:03:25.387Z,8.65
2022-11-03T22:05:55.044Z,10.02
2022-11-03T22:08:24.607Z,7.85
2022-11-03T22:10:54.163Z,8.60
2022-11-03T22:13:23.778Z,7.47
2022-11-03T22:16:09.338Z,6.63
2022-11-03T22:18:38.903Z,7.72
2022-11-03T22:21:21.225Z,9.38
2022-11-03T22:24:08.949Z,10.13
2022-11-03T22:26:51.007Z,7.13
2022-11-03T22:29:33.070Z,7.90
2022-11-03T22:32:06.122Z,8.35
2022-11-03T22:34:48.126Z,8.53
2022-11-03T22:37:17.673Z,8.45
2022-11-03T22:39:59.745Z,8.65
2022-11-03T22:42:41.751Z,11.83
2022-11-03T22:45:24.542Z,12.73
2022-11-03T22:47:57.484Z,9.23
2022-11-03T22:50:27.267Z,9.77
2022-11-03T22:52:56.866Z,10.80
2022-11-03T22:55:23.962Z,11.73
2022-11-03T22:57:53.533Z,10.48
2022-11-03T23:00:23.713Z,10.93
2022-11-03T23:02:58.550Z,6.68
2022-11-03T23:05:28.145Z,8.88
2022-11-03T23:07:57.664Z,8.73
2022-11-03T23:10:31.202Z,7.95
2022-11-03T23:13:00.789Z,7.75
2022-11-03T23:15:40.775Z,8.10
2022-11-03T23:18:25.434Z,7.20
2022-11-03T23:21:09.906Z,5.03
2022-11-03T23:23:53.536Z,3.47
2022-11-03T23:26:23.662Z,4.00
2022-11-03T23:28:53.398Z,4.20
2022-11-03T23:31:23.084Z,4.10
2022-11-03T23:33:55.320Z,3.60
2022-11-03T23:36:25.016Z,4.10
2022-11-03T23:38:54.787Z,5.40
2022-11-03T23:41:24.388Z,5.50
2022-11-03T23:43:54.030Z,4.57
2022-11-03T23:46:37.198Z,4.03
2022-11-03T23:49:09.819Z,4.28
2022-11-03T23:51:39.835Z,3.72
2022-11-03T23:54:11.266Z,4.25
2022-11-03T23:56:54.411Z,3.72
2022-11-03T23:59:24.574Z,4.32
